<?xml version="1.0" encoding="UTF-8" standalone="no" ?>
<gpx xmlns="http://www.topografix.com/GPX/1/1" xmlns:xsi="http://www.w3.org/2001/XMLSchema-instance" xsi:schemaLocation="http://www.topografix.com/GPX/1/1 http://www.topografix.com/GPX/1/1/gpx.xsd" version="1.1" creator="VisuGPX - https://www.visugpx.com">
  <metadata>
    <name>Norvège</name>
  </metadata>
  <trk>
    <name><![CDATA[Tour d'Europe: étape 052]]></name>
    <trkseg>
      <trkpt lat="67.90058" lon="13.04655">
        <ele>50.372237</ele>
        <time>2020-08-19T12:37:31.864Z</time>
      </trkpt>
      <trkpt lat="67.90208" lon="13.04289">
        <ele>55.378407</ele>
        <time>2020-08-19T12:38:35.852Z</time>
      </trkpt>
      <trkpt lat="67.90351" lon="13.04392">
        <ele>64.912303</ele>
        <time>2020-08-19T12:40:21.857Z</time>
      </trkpt>
      <trkpt lat="67.90527" lon="13.04676">
        <ele>67.721737</ele>
        <time>2020-08-19T12:41:18.903Z</time>
      </trkpt>
      <trkpt lat="67.91031" lon="13.06997">
        <ele>77.024744</ele>
        <time>2020-08-19T12:45:25.838Z</time>
      </trkpt>
      <trkpt lat="67.91208" lon="13.07408">
        <ele>66.729748</ele>
        <time>2020-08-19T12:46:05.848Z</time>
      </trkpt>
      <trkpt lat="67.91392" lon="13.0786">
        <ele>63.107675</ele>
        <time>2020-08-19T12:46:41.848Z</time>
      </trkpt>
      <trkpt lat="67.91641" lon="13.08107">
        <ele>62.787564</ele>
        <time>2020-08-19T12:47:28.845Z</time>
      </trkpt>
      <trkpt lat="67.91851" lon="13.08136">
        <ele>67.739232</ele>
        <time>2020-08-19T12:48:39.845Z</time>
      </trkpt>
      <trkpt lat="67.92031" lon="13.07885">
        <ele>66.098231</ele>
        <time>2020-08-19T12:49:19.849Z</time>
      </trkpt>
      <trkpt lat="67.92284" lon="13.07897">
        <ele>61.639455</ele>
        <time>2020-08-19T12:54:04.841Z</time>
      </trkpt>
      <trkpt lat="67.92505" lon="13.08245">
        <ele>57.705649</ele>
        <time>2020-08-19T12:54:44.861Z</time>
      </trkpt>
      <trkpt lat="67.92713" lon="13.08341">
        <ele>62.865681</ele>
        <time>2020-08-19T12:55:57.844Z</time>
      </trkpt>
      <trkpt lat="67.92922" lon="13.08233">
        <ele>64.720207</ele>
        <time>2020-08-19T12:57:05.841Z</time>
      </trkpt>
      <trkpt lat="67.93102" lon="13.07815">
        <ele>58.962323</ele>
        <time>2020-08-19T12:57:41.896Z</time>
      </trkpt>
      <trkpt lat="67.93303" lon="13.07464">
        <ele>55.34335</ele>
        <time>2020-08-19T12:58:25.859Z</time>
      </trkpt>
      <trkpt lat="67.93531" lon="13.07434">
        <ele>52.651329</ele>
        <time>2020-08-19T12:59:04.882Z</time>
      </trkpt>
      <trkpt lat="67.9375" lon="13.07239">
        <ele>49.753728</ele>
        <time>2020-08-19T12:59:46.850Z</time>
      </trkpt>
      <trkpt lat="67.93935" lon="13.07558">
        <ele>49.011411</ele>
        <time>2020-08-19T13:00:26.845Z</time>
      </trkpt>
      <trkpt lat="67.93907" lon="13.08099">
        <ele>48.355973</ele>
        <time>2020-08-19T13:01:06.851Z</time>
      </trkpt>
      <trkpt lat="67.93941" lon="13.08611">
        <ele>53.540752</ele>
        <time>2020-08-19T13:04:42.857Z</time>
      </trkpt>
      <trkpt lat="67.93938" lon="13.09219">
        <ele>49.512749</ele>
        <time>2020-08-19T13:05:33.873Z</time>
      </trkpt>
      <trkpt lat="67.94108" lon="13.0963">
        <ele>49.449004</ele>
        <time>2020-08-19T13:06:16.841Z</time>
      </trkpt>
      <trkpt lat="67.94259" lon="13.10084">
        <ele>53.000779</ele>
        <time>2020-08-19T13:07:08.848Z</time>
      </trkpt>
      <trkpt lat="67.94198" lon="13.10601">
        <ele>57.345133</ele>
        <time>2020-08-19T13:08:35.909Z</time>
      </trkpt>
      <trkpt lat="67.94155" lon="13.11243">
        <ele>47.446183</ele>
        <time>2020-08-19T13:09:13.853Z</time>
      </trkpt>
      <trkpt lat="67.94126" lon="13.11815">
        <ele>44.972577</ele>
        <time>2020-08-19T13:09:53.850Z</time>
      </trkpt>
      <trkpt lat="67.943" lon="13.1205">
        <ele>45.723639</ele>
        <time>2020-08-19T13:10:33.852Z</time>
      </trkpt>
      <trkpt lat="67.94481" lon="13.12311">
        <ele>52.146203</ele>
        <time>2020-08-19T13:11:29.875Z</time>
      </trkpt>
      <trkpt lat="67.94534" lon="13.12816">
        <ele>63.931998</ele>
        <time>2020-08-19T13:13:05.861Z</time>
      </trkpt>
      <trkpt lat="67.94534" lon="13.13475">
        <ele>58.384559</ele>
        <time>2020-08-19T13:14:20.856Z</time>
      </trkpt>
      <trkpt lat="67.94692" lon="13.1377">
        <ele>47.542175</ele>
        <time>2020-08-19T13:14:40.878Z</time>
      </trkpt>
      <trkpt lat="67.94931" lon="13.13747">
        <ele>50.896101</ele>
        <time>2020-08-19T13:15:31.859Z</time>
      </trkpt>
      <trkpt lat="67.95135" lon="13.13733">
        <ele>54.4808</ele>
        <time>2020-08-19T13:16:34.857Z</time>
      </trkpt>
      <trkpt lat="67.95333" lon="13.14005">
        <ele>55.893403</ele>
        <time>2020-08-19T13:17:16.912Z</time>
      </trkpt>
      <trkpt lat="67.95556" lon="13.14153">
        <ele>53.64605</ele>
        <time>2020-08-19T13:18:01.868Z</time>
      </trkpt>
      <trkpt lat="67.95767" lon="13.14348">
        <ele>55.630614</ele>
        <time>2020-08-19T13:19:01.848Z</time>
      </trkpt>
      <trkpt lat="67.95975" lon="13.1463">
        <ele>62.685183</ele>
        <time>2020-08-19T13:20:00.866Z</time>
      </trkpt>
      <trkpt lat="67.96114" lon="13.14979">
        <ele>75.534061</ele>
        <time>2020-08-19T13:21:57.926Z</time>
      </trkpt>
      <trkpt lat="67.96239" lon="13.15367">
        <ele>90.59467</ele>
        <time>2020-08-19T13:25:26.880Z</time>
      </trkpt>
      <trkpt lat="67.96351" lon="13.15926">
        <ele>86.295078</ele>
        <time>2020-08-19T13:26:11.851Z</time>
      </trkpt>
      <trkpt lat="67.96468" lon="13.16681">
        <ele>80.713413</ele>
        <time>2020-08-19T13:26:45.859Z</time>
      </trkpt>
      <trkpt lat="67.96687" lon="13.17012">
        <ele>80.464668</ele>
        <time>2020-08-19T13:27:25.849Z</time>
      </trkpt>
      <trkpt lat="67.96868" lon="13.17361">
        <ele>77.49786</ele>
        <time>2020-08-19T13:27:49.860Z</time>
      </trkpt>
      <trkpt lat="67.97103" lon="13.17543">
        <ele>72.461714</ele>
        <time>2020-08-19T13:28:29.868Z</time>
      </trkpt>
      <trkpt lat="67.97294" lon="13.17942">
        <ele>60.199544</ele>
        <time>2020-08-19T13:28:56.862Z</time>
      </trkpt>
      <trkpt lat="67.97486" lon="13.18354">
        <ele>52.342742</ele>
        <time>2020-08-19T13:29:35.854Z</time>
      </trkpt>
      <trkpt lat="67.97668" lon="13.1853">
        <ele>61.294181</ele>
        <time>2020-08-19T13:30:23.866Z</time>
      </trkpt>
      <trkpt lat="67.97843" lon="13.18339">
        <ele>70.530736</ele>
        <time>2020-08-19T13:31:46.858Z</time>
      </trkpt>
      <trkpt lat="67.98044" lon="13.18205">
        <ele>72.581215</ele>
        <time>2020-08-19T13:32:51.868Z</time>
      </trkpt>
      <trkpt lat="67.98242" lon="13.17906">
        <ele>67.282993</ele>
        <time>2020-08-19T13:33:27.866Z</time>
      </trkpt>
      <trkpt lat="67.98451" lon="13.1772">
        <ele>60.471369</ele>
        <time>2020-08-19T13:33:54.908Z</time>
      </trkpt>
      <trkpt lat="67.9863" lon="13.1735">
        <ele>50.814664</ele>
        <time>2020-08-19T13:34:19.867Z</time>
      </trkpt>
      <trkpt lat="67.98813" lon="13.16937">
        <ele>47.899068</ele>
        <time>2020-08-19T13:34:59.869Z</time>
      </trkpt>
      <trkpt lat="67.99047" lon="13.16787">
        <ele>47.795972</ele>
        <time>2020-08-19T13:35:39.889Z</time>
      </trkpt>
      <trkpt lat="67.99243" lon="13.1671">
        <ele>49.634279</ele>
        <time>2020-08-19T13:36:24.878Z</time>
      </trkpt>
      <trkpt lat="67.99458" lon="13.16889">
        <ele>51.503991</ele>
        <time>2020-08-19T13:37:24.863Z</time>
      </trkpt>
      <trkpt lat="67.99689" lon="13.1712">
        <ele>53.219252</ele>
        <time>2020-08-19T13:38:22.862Z</time>
      </trkpt>
      <trkpt lat="67.99871" lon="13.17425">
        <ele>52.709092</ele>
        <time>2020-08-19T13:39:07.852Z</time>
      </trkpt>
      <trkpt lat="68.00097" lon="13.17576">
        <ele>52.413628</ele>
        <time>2020-08-19T13:39:50.862Z</time>
      </trkpt>
      <trkpt lat="68.00337" lon="13.17613">
        <ele>52.410868</ele>
        <time>2020-08-19T13:40:32.854Z</time>
      </trkpt>
      <trkpt lat="68.00541" lon="13.17605">
        <ele>57.457257</ele>
        <time>2020-08-19T13:41:51.871Z</time>
      </trkpt>
      <trkpt lat="68.00619" lon="13.17102">
        <ele>55.155034</ele>
        <time>2020-08-19T13:42:33.890Z</time>
      </trkpt>
      <trkpt lat="68.00823" lon="13.16826">
        <ele>50.313209</ele>
        <time>2020-08-19T13:43:07.882Z</time>
      </trkpt>
      <trkpt lat="68.01039" lon="13.167">
        <ele>55.338482</ele>
        <time>2020-08-19T13:44:10.875Z</time>
      </trkpt>
      <trkpt lat="68.01249" lon="13.1693">
        <ele>59.552179</ele>
        <time>2020-08-19T13:45:05.876Z</time>
      </trkpt>
      <trkpt lat="68.01444" lon="13.17166">
        <ele>60.874543</ele>
        <time>2020-08-19T13:46:02.883Z</time>
      </trkpt>
      <trkpt lat="68.01654" lon="13.17494">
        <ele>57.870535</ele>
        <time>2020-08-19T13:46:48.881Z</time>
      </trkpt>
      <trkpt lat="68.01805" lon="13.17894">
        <ele>63.869516</ele>
        <time>2020-08-19T13:47:41.862Z</time>
      </trkpt>
      <trkpt lat="68.01944" lon="13.18342">
        <ele>65.91023</ele>
        <time>2020-08-19T13:48:36.874Z</time>
      </trkpt>
      <trkpt lat="68.02178" lon="13.18503">
        <ele>54.653247</ele>
        <time>2020-08-19T13:49:10.877Z</time>
      </trkpt>
      <trkpt lat="68.02387" lon="13.18213">
        <ele>48.647058</ele>
        <time>2020-08-19T13:49:38.871Z</time>
      </trkpt>
      <trkpt lat="68.02584" lon="13.1809">
        <ele>47.036433</ele>
        <time>2020-08-19T13:50:18.906Z</time>
      </trkpt>
      <trkpt lat="68.0277" lon="13.17852">
        <ele>49.311993</ele>
        <time>2020-08-19T13:53:59.865Z</time>
      </trkpt>
      <trkpt lat="68.02983" lon="13.17771">
        <ele>49.943044</ele>
        <time>2020-08-19T13:54:57.864Z</time>
      </trkpt>
      <trkpt lat="68.03196" lon="13.17973">
        <ele>51.95973</ele>
        <time>2020-08-19T13:55:37.858Z</time>
      </trkpt>
      <trkpt lat="68.0339" lon="13.17721">
        <ele>52.31406</ele>
        <time>2020-08-19T13:56:37.884Z</time>
      </trkpt>
      <trkpt lat="68.03607" lon="13.17413">
        <ele>50.759173</ele>
        <time>2020-08-19T13:57:27.872Z</time>
      </trkpt>
      <trkpt lat="68.03835" lon="13.17166">
        <ele>48.3741</ele>
        <time>2020-08-19T13:58:13.859Z</time>
      </trkpt>
      <trkpt lat="68.04044" lon="13.17083">
        <ele>55.344494</ele>
        <time>2020-08-19T13:59:13.865Z</time>
      </trkpt>
      <trkpt lat="68.04256" lon="13.17084">
        <ele>66.813572</ele>
        <time>2020-08-19T14:00:33.889Z</time>
      </trkpt>
      <trkpt lat="68.04457" lon="13.17133">
        <ele>70.969829</ele>
        <time>2020-08-19T14:01:37.864Z</time>
      </trkpt>
      <trkpt lat="68.0467" lon="13.17344">
        <ele>66.612247</ele>
        <time>2020-08-19T14:02:29.896Z</time>
      </trkpt>
      <trkpt lat="68.04925" lon="13.17657">
        <ele>58.364079</ele>
        <time>2020-08-19T14:03:09.870Z</time>
      </trkpt>
      <trkpt lat="68.0514" lon="13.17895">
        <ele>60.527504</ele>
        <time>2020-08-19T14:03:50.860Z</time>
      </trkpt>
      <trkpt lat="68.05319" lon="13.18119">
        <ele>72.802321</ele>
        <time>2020-08-19T14:05:32.874Z</time>
      </trkpt>
      <trkpt lat="68.0551" lon="13.18365">
        <ele>76.048402</ele>
        <time>2020-08-19T14:06:15.859Z</time>
      </trkpt>
      <trkpt lat="68.05737" lon="13.18547">
        <ele>69.222172</ele>
        <time>2020-08-19T14:06:58.881Z</time>
      </trkpt>
      <trkpt lat="68.05967" lon="13.18855">
        <ele>69.478661</ele>
        <time>2020-08-19T14:07:33.876Z</time>
      </trkpt>
      <trkpt lat="68.06133" lon="13.19125">
        <ele>83.616946</ele>
        <time>2020-08-19T14:08:57.862Z</time>
      </trkpt>
      <trkpt lat="68.0635" lon="13.19338">
        <ele>65.187861</ele>
        <time>2020-08-19T14:09:36.866Z</time>
      </trkpt>
      <trkpt lat="68.06553" lon="13.19571">
        <ele>65.15502</ele>
        <time>2020-08-19T14:10:31.872Z</time>
      </trkpt>
      <trkpt lat="68.0679" lon="13.19673">
        <ele>60.478084</ele>
        <time>2020-08-19T14:11:10.865Z</time>
      </trkpt>
      <trkpt lat="68.07023" lon="13.19847">
        <ele>53.349075</ele>
        <time>2020-08-19T14:11:44.860Z</time>
      </trkpt>
      <trkpt lat="68.07232" lon="13.19921">
        <ele>62.085204</ele>
        <time>2020-08-19T14:12:47.905Z</time>
      </trkpt>
      <trkpt lat="68.07399" lon="13.20162">
        <ele>63.552447</ele>
        <time>2020-08-19T14:13:52.881Z</time>
      </trkpt>
      <trkpt lat="68.07447" lon="13.20715">
        <ele>63.865113</ele>
        <time>2020-08-19T14:15:00.916Z</time>
      </trkpt>
      <trkpt lat="68.07448" lon="13.21478">
        <ele>57.160882</ele>
        <time>2020-08-19T14:15:45.883Z</time>
      </trkpt>
      <trkpt lat="68.07392" lon="13.22118">
        <ele>53.820005</ele>
        <time>2020-08-19T14:16:28.896Z</time>
      </trkpt>
      <trkpt lat="68.07354" lon="13.22767">
        <ele>52.616589</ele>
        <time>2020-08-19T14:17:13.862Z</time>
      </trkpt>
      <trkpt lat="68.07315" lon="13.2346">
        <ele>48.299193</ele>
        <time>2020-08-19T14:17:53.879Z</time>
      </trkpt>
      <trkpt lat="68.07427" lon="13.23973">
        <ele>43.220848</ele>
        <time>2020-08-19T14:18:41.865Z</time>
      </trkpt>
      <trkpt lat="68.07655" lon="13.23948">
        <ele>46.868678</ele>
        <time>2020-08-19T14:19:45.874Z</time>
      </trkpt>
      <trkpt lat="68.07871" lon="13.23795">
        <ele>47.169071</ele>
        <time>2020-08-19T14:20:40.870Z</time>
      </trkpt>
      <trkpt lat="68.0806" lon="13.23522">
        <ele>49.883873</ele>
        <time>2020-08-19T14:21:40.892Z</time>
      </trkpt>
      <trkpt lat="68.08249" lon="13.23302">
        <ele>52.492794</ele>
        <time>2020-08-19T14:22:27.928Z</time>
      </trkpt>
      <trkpt lat="68.08484" lon="13.23139">
        <ele>50.563056</ele>
        <time>2020-08-19T14:23:07.881Z</time>
      </trkpt>
      <trkpt lat="68.08684" lon="13.22924">
        <ele>47.063297</ele>
        <time>2020-08-19T14:23:51.902Z</time>
      </trkpt>
      <trkpt lat="68.089" lon="13.22908">
        <ele>47.822481</ele>
        <time>2020-08-19T14:24:39.902Z</time>
      </trkpt>
      <trkpt lat="68.09013" lon="13.2303">
        <ele>60.0557</ele>
        <time>2020-08-19T14:44:46.890Z</time>
      </trkpt>
      <trkpt lat="68.09167" lon="13.23423">
        <ele>59.050046</ele>
        <time>2020-08-19T14:45:32.862Z</time>
      </trkpt>
      <trkpt lat="68.09293" lon="13.23875">
        <ele>53.98196</ele>
        <time>2020-08-19T14:46:12.859Z</time>
      </trkpt>
      <trkpt lat="68.09459" lon="13.24229">
        <ele>54.714723</ele>
        <time>2020-08-19T14:47:01.911Z</time>
      </trkpt>
      <trkpt lat="68.09641" lon="13.24503">
        <ele>55.340386</ele>
        <time>2020-08-19T14:48:00.885Z</time>
      </trkpt>
      <trkpt lat="68.09841" lon="13.24631">
        <ele>56.050135</ele>
        <time>2020-08-19T14:48:47.860Z</time>
      </trkpt>
      <trkpt lat="68.10044" lon="13.24717">
        <ele>62.72963</ele>
        <time>2020-08-19T14:50:08.862Z</time>
      </trkpt>
      <trkpt lat="68.10215" lon="13.25207">
        <ele>62.629949</ele>
        <time>2020-08-19T14:51:06.871Z</time>
      </trkpt>
      <trkpt lat="68.10324" lon="13.25714">
        <ele>58.61041</ele>
        <time>2020-08-19T14:51:46.870Z</time>
      </trkpt>
      <trkpt lat="68.10377" lon="13.26311">
        <ele>58.945813</ele>
        <time>2020-08-19T14:52:28.873Z</time>
      </trkpt>
      <trkpt lat="68.10379" lon="13.27022">
        <ele>55.862883</ele>
        <time>2020-08-19T14:53:06.886Z</time>
      </trkpt>
      <trkpt lat="68.10422" lon="13.27706">
        <ele>49.411029</ele>
        <time>2020-08-19T14:53:38.901Z</time>
      </trkpt>
      <trkpt lat="68.10346" lon="13.28383">
        <ele>47.208001</ele>
        <time>2020-08-19T14:54:18.888Z</time>
      </trkpt>
      <trkpt lat="68.10262" lon="13.29009">
        <ele>47.103125</ele>
        <time>2020-08-19T14:54:58.877Z</time>
      </trkpt>
      <trkpt lat="68.10267" lon="13.29618">
        <ele>54.677698</ele>
        <time>2020-08-19T14:55:46.891Z</time>
      </trkpt>
      <trkpt lat="68.10276" lon="13.30238">
        <ele>51.898447</ele>
        <time>2020-08-19T14:56:34.886Z</time>
      </trkpt>
      <trkpt lat="68.10231" lon="13.30923">
        <ele>47.884755</ele>
        <time>2020-08-19T14:57:14.868Z</time>
      </trkpt>
      <trkpt lat="68.10175" lon="13.31548">
        <ele>45.798768</ele>
        <time>2020-08-19T14:57:54.891Z</time>
      </trkpt>
      <trkpt lat="68.1012" lon="13.32131">
        <ele>47.616114</ele>
        <time>2020-08-19T14:58:34.874Z</time>
      </trkpt>
      <trkpt lat="68.09916" lon="13.32158">
        <ele>50.631281</ele>
        <time>2020-08-19T14:59:17.870Z</time>
      </trkpt>
      <trkpt lat="68.09688" lon="13.31911">
        <ele>49.362714</ele>
        <time>2020-08-19T14:59:58.886Z</time>
      </trkpt>
      <trkpt lat="68.09475" lon="13.31704">
        <ele>53.089542</ele>
        <time>2020-08-19T15:00:45.882Z</time>
      </trkpt>
      <trkpt lat="68.09222" lon="13.31378">
        <ele>51.964287</ele>
        <time>2020-08-19T15:01:29.869Z</time>
      </trkpt>
      <trkpt lat="68.08987" lon="13.31154">
        <ele>49.608336</ele>
        <time>2020-08-19T15:02:09.878Z</time>
      </trkpt>
      <trkpt lat="68.08787" lon="13.30885">
        <ele>54.152341</ele>
        <time>2020-08-19T15:02:49.916Z</time>
      </trkpt>
      <trkpt lat="68.08628" lon="13.30586">
        <ele>59.015937</ele>
        <time>2020-08-19T15:04:14.877Z</time>
      </trkpt>
      <trkpt lat="68.08533" lon="13.30034">
        <ele>57.36926</ele>
        <time>2020-08-19T15:05:11.905Z</time>
      </trkpt>
      <trkpt lat="68.08451" lon="13.29369">
        <ele>44.842843</ele>
        <time>2020-08-19T15:05:51.901Z</time>
      </trkpt>
      <trkpt lat="68.08245" lon="13.29237">
        <ele>50.63255</ele>
        <time>2020-08-19T15:06:36.881Z</time>
      </trkpt>
      <trkpt lat="68.08005" lon="13.29377">
        <ele>57.202594</ele>
        <time>2020-08-19T15:07:20.877Z</time>
      </trkpt>
      <trkpt lat="68.07821" lon="13.29834">
        <ele>52.595479</ele>
        <time>2020-08-19T15:08:00.891Z</time>
      </trkpt>
      <trkpt lat="68.07763" lon="13.30383">
        <ele>54.913858</ele>
        <time>2020-08-19T15:08:48.892Z</time>
      </trkpt>
      <trkpt lat="68.07772" lon="13.3093">
        <ele>58.669384</ele>
        <time>2020-08-19T15:09:43.888Z</time>
      </trkpt>
      <trkpt lat="68.0766" lon="13.31441">
        <ele>56.000679</ele>
        <time>2020-08-19T15:10:26.918Z</time>
      </trkpt>
      <trkpt lat="68.07514" lon="13.32085">
        <ele>49.514678</ele>
        <time>2020-08-19T15:11:03.880Z</time>
      </trkpt>
      <trkpt lat="68.07411" lon="13.32541">
        <ele>58.381498</ele>
        <time>2020-08-19T15:12:47.904Z</time>
      </trkpt>
      <trkpt lat="68.07293" lon="13.33072">
        <ele>57.477529</ele>
        <time>2020-08-19T15:13:32.883Z</time>
      </trkpt>
      <trkpt lat="68.07217" lon="13.33677">
        <ele>47.396099</ele>
        <time>2020-08-19T15:13:59.882Z</time>
      </trkpt>
      <trkpt lat="68.07236" lon="13.34288">
        <ele>47.05569</ele>
        <time>2020-08-19T15:14:44.882Z</time>
      </trkpt>
      <trkpt lat="68.07398" lon="13.34652">
        <ele>48.344988</ele>
        <time>2020-08-19T15:15:31.890Z</time>
      </trkpt>
      <trkpt lat="68.07604" lon="13.34692">
        <ele>48.901694</ele>
        <time>2020-08-19T15:16:32.934Z</time>
      </trkpt>
      <trkpt lat="68.07811" lon="13.34571">
        <ele>48.436408</ele>
        <time>2020-08-19T15:17:15.882Z</time>
      </trkpt>
      <trkpt lat="68.08015" lon="13.34434">
        <ele>51.683954</ele>
        <time>2020-08-19T15:18:29.908Z</time>
      </trkpt>
      <trkpt lat="68.08224" lon="13.34295">
        <ele>50.912135</ele>
        <time>2020-08-19T15:19:21.895Z</time>
      </trkpt>
      <trkpt lat="68.08474" lon="13.34129">
        <ele>43.406448</ele>
        <time>2020-08-19T15:20:04.881Z</time>
      </trkpt>
      <trkpt lat="68.08674" lon="13.33993">
        <ele>46.508874</ele>
        <time>2020-08-19T15:21:08.881Z</time>
      </trkpt>
      <trkpt lat="68.08921" lon="13.33835">
        <ele>37.314285</ele>
        <time>2020-08-19T15:21:48.906Z</time>
      </trkpt>
      <trkpt lat="68.09146" lon="13.33736">
        <ele>34.889969</ele>
        <time>2020-08-19T15:22:31.910Z</time>
      </trkpt>
      <trkpt lat="68.09364" lon="13.33716">
        <ele>40.533718</ele>
        <time>2020-08-19T15:23:24.894Z</time>
      </trkpt>
      <trkpt lat="68.09572" lon="13.33771">
        <ele>52.624045</ele>
        <time>2020-08-19T15:24:34.882Z</time>
      </trkpt>
      <trkpt lat="68.0979" lon="13.3389">
        <ele>57.714975</ele>
        <time>2020-08-19T15:25:34.904Z</time>
      </trkpt>
      <trkpt lat="68.10022" lon="13.34177">
        <ele>52.736857</ele>
        <time>2020-08-19T15:26:19.884Z</time>
      </trkpt>
      <trkpt lat="68.10281" lon="13.34445">
        <ele>44.784821</ele>
        <time>2020-08-19T15:26:59.883Z</time>
      </trkpt>
      <trkpt lat="68.10503" lon="13.34388">
        <ele>43.740358</ele>
        <time>2020-08-19T15:27:51.878Z</time>
      </trkpt>
      <trkpt lat="68.10718" lon="13.34285">
        <ele>45.199917</ele>
        <time>2020-08-19T15:28:51.904Z</time>
      </trkpt>
      <trkpt lat="68.10994" lon="13.34148">
        <ele>42.807539</ele>
        <time>2020-08-19T15:29:31.882Z</time>
      </trkpt>
      <trkpt lat="68.11241" lon="13.3435">
        <ele>48.951717</ele>
        <time>2020-08-19T15:30:11.886Z</time>
      </trkpt>
      <trkpt lat="68.11451" lon="13.34482">
        <ele>50.015211</ele>
        <time>2020-08-19T15:31:02.889Z</time>
      </trkpt>
      <trkpt lat="68.1168" lon="13.34612">
        <ele>49.890536</ele>
        <time>2020-08-19T15:31:44.929Z</time>
      </trkpt>
      <trkpt lat="68.11869" lon="13.34826">
        <ele>53.958607</ele>
        <time>2020-08-19T15:32:30.900Z</time>
      </trkpt>
      <trkpt lat="68.11969" lon="13.35362">
        <ele>57.044871</ele>
        <time>2020-08-19T15:33:20.915Z</time>
      </trkpt>
      <trkpt lat="68.12012" lon="13.35938">
        <ele>60.428528</ele>
        <time>2020-08-19T15:34:18.892Z</time>
      </trkpt>
      <trkpt lat="68.1215" lon="13.36544">
        <ele>57.795553</ele>
        <time>2020-08-19T15:34:58.902Z</time>
      </trkpt>
      <trkpt lat="68.12295" lon="13.37074">
        <ele>49.720784</ele>
        <time>2020-08-19T15:35:30.924Z</time>
      </trkpt>
      <trkpt lat="68.12396" lon="13.37601">
        <ele>51.408386</ele>
        <time>2020-08-19T15:36:15.903Z</time>
      </trkpt>
      <trkpt lat="68.12526" lon="13.38027">
        <ele>61.135691</ele>
        <time>2020-08-19T15:37:20.882Z</time>
      </trkpt>
      <trkpt lat="68.12698" lon="13.38334">
        <ele>68.533673</ele>
        <time>2020-08-19T15:38:25.885Z</time>
      </trkpt>
      <trkpt lat="68.12893" lon="13.38608">
        <ele>78.882899</ele>
        <time>2020-08-19T15:39:42.882Z</time>
      </trkpt>
      <trkpt lat="68.12929" lon="13.39111">
        <ele>93.128396</ele>
        <time>2020-08-19T15:41:33.907Z</time>
      </trkpt>
      <trkpt lat="68.12922" lon="13.39646">
        <ele>100.074037</ele>
        <time>2020-08-19T15:43:21.909Z</time>
      </trkpt>
      <trkpt lat="68.12922" lon="13.40279">
        <ele>90.870879</ele>
        <time>2020-08-19T15:43:53.930Z</time>
      </trkpt>
      <trkpt lat="68.13032" lon="13.40942">
        <ele>71.584322</ele>
        <time>2020-08-19T15:44:13.889Z</time>
      </trkpt>
      <trkpt lat="68.13122" lon="13.41707">
        <ele>49.637509</ele>
        <time>2020-08-19T15:44:33.901Z</time>
      </trkpt>
      <trkpt lat="68.1317" lon="13.42333">
        <ele>45.602112</ele>
        <time>2020-08-19T15:44:58.901Z</time>
      </trkpt>
      <trkpt lat="68.13236" lon="13.42861">
        <ele>53.10753</ele>
        <time>2020-08-19T15:45:56.909Z</time>
      </trkpt>
      <trkpt lat="68.1333" lon="13.43422">
        <ele>52.719898</ele>
        <time>2020-08-19T15:46:37.922Z</time>
      </trkpt>
      <trkpt lat="68.13387" lon="13.44054">
        <ele>44.543129</ele>
        <time>2020-08-19T15:47:08.921Z</time>
      </trkpt>
      <trkpt lat="68.13496" lon="13.44631">
        <ele>45.335661</ele>
        <time>2020-08-19T15:47:48.920Z</time>
      </trkpt>
      <trkpt lat="68.13607" lon="13.45078">
        <ele>48.169781</ele>
        <time>2020-08-19T15:48:33.903Z</time>
      </trkpt>
      <trkpt lat="68.13778" lon="13.45387">
        <ele>47.579527</ele>
        <time>2020-08-19T15:49:19.927Z</time>
      </trkpt>
      <trkpt lat="68.13971" lon="13.45544">
        <ele>43.665312</ele>
        <time>2020-08-19T15:50:02.932Z</time>
      </trkpt>
      <trkpt lat="68.14833" lon="13.48416">
        <ele>47.325493</ele>
        <time>2020-08-19T15:59:11.920Z</time>
      </trkpt>
      <trkpt lat="68.14743" lon="13.48869">
        <ele>54.9733</ele>
        <time>2020-08-19T16:01:05.902Z</time>
      </trkpt>
      <trkpt lat="68.14776" lon="13.49421">
        <ele>59.967782</ele>
        <time>2020-08-19T16:02:05.921Z</time>
      </trkpt>
      <trkpt lat="68.14802" lon="13.50005">
        <ele>60.41568</ele>
        <time>2020-08-19T16:02:48.913Z</time>
      </trkpt>
      <trkpt lat="68.14921" lon="13.50537">
        <ele>62.571487</ele>
        <time>2020-08-19T16:03:47.905Z</time>
      </trkpt>
      <trkpt lat="68.15062" lon="13.50883">
        <ele>58.681264</ele>
        <time>2020-08-19T16:10:00.915Z</time>
      </trkpt>
      <trkpt lat="68.15267" lon="13.51103">
        <ele>55.695121</ele>
        <time>2020-08-19T16:10:40.940Z</time>
      </trkpt>
      <trkpt lat="68.15445" lon="13.51427">
        <ele>59.87298</ele>
        <time>2020-08-19T16:11:35.992Z</time>
      </trkpt>
      <trkpt lat="68.15582" lon="13.51855">
        <ele>59.406157</ele>
        <time>2020-08-19T16:12:26.903Z</time>
      </trkpt>
      <trkpt lat="68.15676" lon="13.52522">
        <ele>52.926137</ele>
        <time>2020-08-19T16:13:06.903Z</time>
      </trkpt>
      <trkpt lat="68.15531" lon="13.53184">
        <ele>50.037201</ele>
        <time>2020-08-19T16:13:46.921Z</time>
      </trkpt>
      <trkpt lat="68.15336" lon="13.53629">
        <ele>43.803267</ele>
        <time>2020-08-19T16:14:27.927Z</time>
      </trkpt>
      <trkpt lat="68.15122" lon="13.54126">
        <ele>39.668648</ele>
        <time>2020-08-19T16:15:07.913Z</time>
      </trkpt>
      <trkpt lat="68.14947" lon="13.54446">
        <ele>47.548081</ele>
        <time>2020-08-19T16:16:15.893Z</time>
      </trkpt>
      <trkpt lat="68.14736" lon="13.54583">
        <ele>47.397316</ele>
        <time>2020-08-19T16:17:10.924Z</time>
      </trkpt>
      <trkpt lat="68.14443" lon="13.54667">
        <ele>41.037593</ele>
        <time>2020-08-19T16:17:50.897Z</time>
      </trkpt>
      <trkpt lat="68.14246" lon="13.54861">
        <ele>46.980105</ele>
        <time>2020-08-19T16:18:46.905Z</time>
      </trkpt>
      <trkpt lat="68.14056" lon="13.55153">
        <ele>56.634689</ele>
        <time>2020-08-19T16:20:04.925Z</time>
      </trkpt>
      <trkpt lat="68.13863" lon="13.55433">
        <ele>54.214028</ele>
        <time>2020-08-19T16:20:51.908Z</time>
      </trkpt>
      <trkpt lat="68.13661" lon="13.55958">
        <ele>49.601659</ele>
        <time>2020-08-19T16:21:31.912Z</time>
      </trkpt>
      <trkpt lat="68.1369" lon="13.56519">
        <ele>50.334111</ele>
        <time>2020-08-19T16:22:19.902Z</time>
      </trkpt>
      <trkpt lat="68.13733" lon="13.57094">
        <ele>47.086159</ele>
        <time>2020-08-19T16:22:59.895Z</time>
      </trkpt>
      <trkpt lat="68.1385" lon="13.57527">
        <ele>48.619719</ele>
        <time>2020-08-19T16:23:43.924Z</time>
      </trkpt>
      <trkpt lat="68.14006" lon="13.57941">
        <ele>49.031936</ele>
        <time>2020-08-19T16:24:31.902Z</time>
      </trkpt>
      <trkpt lat="68.14155" lon="13.58344">
        <ele>50.609068</ele>
        <time>2020-08-19T16:25:28.927Z</time>
      </trkpt>
      <trkpt lat="68.14264" lon="13.58929">
        <ele>46.963452</ele>
        <time>2020-08-19T16:26:12.903Z</time>
      </trkpt>
      <trkpt lat="68.14338" lon="13.59459">
        <ele>53.449859</ele>
        <time>2020-08-19T16:27:07.910Z</time>
      </trkpt>
      <trkpt lat="68.14464" lon="13.60025">
        <ele>55.035669</ele>
        <time>2020-08-19T16:27:54.908Z</time>
      </trkpt>
      <trkpt lat="68.14578" lon="13.60505">
        <ele>54.41862</ele>
        <time>2020-08-19T16:28:38.927Z</time>
      </trkpt>
      <trkpt lat="68.14698" lon="13.6096">
        <ele>55.627214</ele>
        <time>2020-08-19T16:29:24.902Z</time>
      </trkpt>
      <trkpt lat="68.14756" lon="13.61455">
        <ele>55.280787</ele>
        <time>2020-08-19T16:30:29.947Z</time>
      </trkpt>
      <trkpt lat="68.14842" lon="13.61903">
        <ele>50.993184</ele>
        <time>2020-08-19T16:31:23.927Z</time>
      </trkpt>
      <trkpt lat="68.15036" lon="13.62042">
        <ele>51.528387</ele>
        <time>2020-08-19T16:32:23.918Z</time>
      </trkpt>
      <trkpt lat="68.15243" lon="13.62121">
        <ele>52.301701</ele>
        <time>2020-08-19T16:33:16.910Z</time>
      </trkpt>
      <trkpt lat="68.15429" lon="13.62228">
        <ele>51.312203</ele>
        <time>2020-08-19T16:33:59.930Z</time>
      </trkpt>
      <trkpt lat="68.15604" lon="13.62168">
        <ele>53.295978</ele>
        <time>2020-08-19T16:34:47.944Z</time>
      </trkpt>
      <trkpt lat="68.15799" lon="13.61988">
        <ele>54.774585</ele>
        <time>2020-08-19T16:35:55.926Z</time>
      </trkpt>
      <trkpt lat="68.15983" lon="13.61712">
        <ele>53.714719</ele>
        <time>2020-08-19T16:36:55.906Z</time>
      </trkpt>
      <trkpt lat="68.16122" lon="13.61288">
        <ele>51.953174</ele>
        <time>2020-08-19T16:37:35.907Z</time>
      </trkpt>
      <trkpt lat="68.16183" lon="13.60712">
        <ele>57.372278</ele>
        <time>2020-08-19T16:38:57.933Z</time>
      </trkpt>
      <trkpt lat="68.16241" lon="13.60184">
        <ele>61.12311</ele>
        <time>2020-08-19T16:39:59.925Z</time>
      </trkpt>
      <trkpt lat="68.16299" lon="13.59666">
        <ele>65.761347</ele>
        <time>2020-08-19T16:41:05.907Z</time>
      </trkpt>
      <trkpt lat="68.16361" lon="13.59062">
        <ele>58.866765</ele>
        <time>2020-08-19T16:41:47.920Z</time>
      </trkpt>
      <trkpt lat="68.1633" lon="13.58543">
        <ele>52.426005</ele>
        <time>2020-08-19T16:42:27.915Z</time>
      </trkpt>
      <trkpt lat="68.16136" lon="13.5833">
        <ele>49.431451</ele>
        <time>2020-08-19T16:43:09.933Z</time>
      </trkpt>
    </trkseg>
  </trk>
</gpx>